Scott, Indiana
Current Conditions -  °F | °C
As of 9:15 PM on Monday 24 Nov 2014 (Local Time) from KANQ Reporting Station
Overcast Overcast  
Wind Chill: 19°   Ceiling: 1600
Heat Index: 32°   Visibility: 10mi
Dew Point: 27°   Wind: 23mph
Humidity: 80%   Direction: 240°WSW
Pressure: 29.68"   Gusts: 31mph
Location:  41.6594°N, 85.0055°W
Report Text: KANQ 250215Z AUTO 24020G27KT 10SM OVC016 00/M03 A2968 RMK
Loading
Personal Weather Stations






























Interactive Weather Map New forecast layout! Learn more

10-Day Weather Forecast

Advertisements
Track Severe Weather on mobile